BrazilFixed distance
Ultramaratona dos Perdidos 45 Km
15 Jul2017
Distance
45km
Finishers
183150 men33 women
Winning time
5:12:10h
Median pace
5.12km/h
Pace distribution
183 finishers · 4.01–8.65 km/h · mean 5.32
Every finisher ran the same 45 km course, so these paces are directly comparable.
Histogram of finisher pace. 183 finishers ranged from 4.01 to 8.65 kilometres per hour, with a mean of 5.32 and a median of 5.12. The busiest band is 4.0 to 4.5 kilometres per hour, with 45 finishers.
Results
Ranks 101–150 of 183
| Rank | Runner | Time | Pace | Cat. | Placing |
|---|---|---|---|---|---|
| 101 | 361 Brasil | 8:54:42h | 5.05 | M35 | 90th M · 24th M35 |
| 102 | Rtf | 8:55:06h | 5.05 | M23 | 91st M · 44th M23 |
| 103 | Pesa Runners Minoru | 8:56:09h | 5.04 | M40 | 92nd M · 16th M40 |
| 104 | Fit Labore | 8:57:24h | 5.02 | W40 | 12th F · 2nd W40 |
| 105 | X4 | 8:57:56h | 5.02 | M23 | 93rd M · 45th M23 |
| 106 | Equipiazza | 8:58:20h | 5.01 | M35 | 94th M · 25th M35 |
| 107 | Bola Running/ Fabio Pi... | 9:01:48h | 4.98 | W35 | 13th F · 6th W35 |
| 108 | Veloz Assessoria Espor... | 9:05:23h | 4.95 | M40 | 95th M · 17th M40 |
| 109 | Parcas Que Correm | 9:08:19h | 4.92 | M23 | 96th M · 46th M23 |
| 110 | Tsk | 9:12:00h | 4.89 | W40 | 14th F · 3rd W40 |
| 111 | Tsk / Igrejinha Do Deg... | 9:12:01h | 4.89 | M40 | 97th M · 18th M40 |
| 112 | Science | 9:14:16h | 4.87 | M35 | 98th M · 26th M35 |
| 113 | Enforma | 9:14:29h | 4.87 | M23 | 99th M · 47th M23 |
| 114 | Hb Runners | 9:16:36h | 4.85 | M35 | 100th M · 27th M35 |
| 115 | Os Pamonhas | 9:17:02h | 4.85 | M23 | 101st M · 48th M23 |
| 116 | Long Life Runners | 9:17:34h | 4.84 | W35 | 15th F · 7th W35 |
| 117 | Educative | 9:18:36h | 4.83 | M45 | 102nd M · 9th M45 |
| 118 | Bpm/Aniceski | 9:19:28h | 4.83 | M35 | 103rd M · 28th M35 |
| 119 | Omnia | 9:20:57h | 4.81 | M35 | 104th M · 29th M35 |
| 120 | Trf | 9:22:11h | 4.80 | M40 | 105th M · 19th M40 |
| 121 | Pmpr | 9:23:22h | 4.79 | W35 | 16th F · 8th W35 |
| 122 | Trail Runners Brasil (... | 9:24:07h | 4.79 | W40 | 17th F · 4th W40 |
| 123 | Lobo Assessoria Esportiva | 9:24:07h | 4.79 | W35 | 17th F · 9th W35 |
| 124 | 9:30:51h | 4.73 | M40 | 106th M · 20th M40 | |
| 125 | #Ozrunners | 9:38:29h | 4.67 | M23 | 107th M · 49th M23 |
| 126 | 9:40:40h | 4.65 | M50 | 108th M · 1st M50 | |
| 127 | Live Trail Run | 9:40:45h | 4.65 | W35 | 19th F · 10th W35 |
| 128 | Trail Runners Brasil | 9:41:36h | 4.64 | M23 | 109th M · 50th M23 |
| 129 | Beyond | 9:43:47h | 4.63 | W35 | 20th F · 11th W35 |
| 130 | 9:45:17h | 4.61 | M60 | 110th M · 1st M60 | |
| 131 | Lifewell | 9:48:39h | 4.59 | M23 | 111th M · 51st M23 |
| 132 | Jesus Ama Voce | 9:49:25h | 4.58 | M60 | 112th M · 2nd M60 |
| 133 | Upfitrail | 9:49:43h | 4.58 | M50 | 113th M · 2nd M50 |
| 134 | 9:50:35h | 4.57 | M23 | 114th M · 52nd M23 | |
| 135 | 9:55:39h | 4.53 | M40 | 115th M · 21st M40 | |
| 136 | Tripzone | 9:57:03h | 4.52 | M35 | 116th M · 30th M35 |
| 137 | Jvm Trail Run | 9:57:14h | 4.52 | M40 | 117th M · 22nd M40 |
| 138 | Webtreino/Clube Curiti... | 9:57:20h | 4.52 | W40 | 21st F · 5th W40 |
| 139 | Enforma | 10:00:40h | 4.50 | M35 | 118th M · 31st M35 |
| 140 | Veloz / Gloria Runners | 10:02:52h | 4.48 | M35 | 119th M · 32nd M35 |
| 141 | Furukawa | 10:04:17h | 4.47 | M35 | 120th M · 33rd M35 |
| 142 | Aniceski Bpm | 10:05:33h | 4.46 | M45 | 121st M · 10th M45 |
| 143 | Bpm Aniceski | 10:05:34h | 4.46 | M40 | 122nd M · 23rd M40 |
| 144 | 10:07:14h | 4.45 | M35 | 123rd M · 34th M35 | |
| 145 | Domiciana Gomes | 10:07:37h | 4.44 | W50 | 22nd F · 1st W50 |
| 146 | Domiciana Gomes | 10:07:38h | 4.44 | M50 | 124th M · 3rd M50 |
| 147 | Os Cabras | 10:09:39h | 4.43 | M23 | 125th M · 53rd M23 |
| 148 | Trb - Trail Runners Br... | 10:11:10h | 4.42 | M23 | 126th M · 54th M23 |
| 149 | Ezk Team | 10:17:00h | 4.38 | M35 | 127th M · 35th M35 |
| 150 | Atletis -Mb | 10:20:53h | 4.35 | W45 | 23rd F · 3rd W45 |
- 101361 Brasil90th M · 24th M35Time8:54:42hPace5.05Cat.M35
- 102Rtf91st M · 44th M23Time8:55:06hPace5.05Cat.M23
- 103Pesa Runners Minoru92nd M · 16th M40Time8:56:09hPace5.04Cat.M40
- 104Fit Labore12th F · 2nd W40Time8:57:24hPace5.02Cat.W40
- 105X493rd M · 45th M23Time8:57:56hPace5.02Cat.M23
- 106Equipiazza94th M · 25th M35Time8:58:20hPace5.01Cat.M35
- 107Bola Running/ Fabio Pi...13th F · 6th W35Time9:01:48hPace4.98Cat.W35
- 108Veloz Assessoria Espor...95th M · 17th M40Time9:05:23hPace4.95Cat.M40
- 109Parcas Que Correm96th M · 46th M23Time9:08:19hPace4.92Cat.M23
- 110Tsk14th F · 3rd W40Time9:12:00hPace4.89Cat.W40
- 111Tsk / Igrejinha Do Deg...97th M · 18th M40Time9:12:01hPace4.89Cat.M40
- 112Science98th M · 26th M35Time9:14:16hPace4.87Cat.M35
- 113Enforma99th M · 47th M23Time9:14:29hPace4.87Cat.M23
- 114Hb Runners100th M · 27th M35Time9:16:36hPace4.85Cat.M35
- 115Os Pamonhas101st M · 48th M23Time9:17:02hPace4.85Cat.M23
- 116Long Life Runners15th F · 7th W35Time9:17:34hPace4.84Cat.W35
- 117Educative102nd M · 9th M45Time9:18:36hPace4.83Cat.M45
- 118Bpm/Aniceski103rd M · 28th M35Time9:19:28hPace4.83Cat.M35
- 119Omnia104th M · 29th M35Time9:20:57hPace4.81Cat.M35
- 120Trf105th M · 19th M40Time9:22:11hPace4.80Cat.M40
- 121Pmpr16th F · 8th W35Time9:23:22hPace4.79Cat.W35
- 122Trail Runners Brasil (...17th F · 4th W40Time9:24:07hPace4.79Cat.W40
- 123Lobo Assessoria Esportiva17th F · 9th W35Time9:24:07hPace4.79Cat.W35
- 124106th M · 20th M40Time9:30:51hPace4.73Cat.M40
- 125#Ozrunners107th M · 49th M23Time9:38:29hPace4.67Cat.M23
- 126108th M · 1st M50Time9:40:40hPace4.65Cat.M50
- 127Live Trail Run19th F · 10th W35Time9:40:45hPace4.65Cat.W35
- 128Trail Runners Brasil109th M · 50th M23Time9:41:36hPace4.64Cat.M23
- 129Beyond20th F · 11th W35Time9:43:47hPace4.63Cat.W35
- 130110th M · 1st M60Time9:45:17hPace4.61Cat.M60
- 131Lifewell111th M · 51st M23Time9:48:39hPace4.59Cat.M23
- 132Jesus Ama Voce112th M · 2nd M60Time9:49:25hPace4.58Cat.M60
- 133Upfitrail113th M · 2nd M50Time9:49:43hPace4.58Cat.M50
- 134114th M · 52nd M23Time9:50:35hPace4.57Cat.M23
- 135115th M · 21st M40Time9:55:39hPace4.53Cat.M40
- 136Tripzone116th M · 30th M35Time9:57:03hPace4.52Cat.M35
- 137Jvm Trail Run117th M · 22nd M40Time9:57:14hPace4.52Cat.M40
- 138Webtreino/Clube Curiti...21st F · 5th W40Time9:57:20hPace4.52Cat.W40
- 139Enforma118th M · 31st M35Time10:00:40hPace4.50Cat.M35
- 140Veloz / Gloria Runners119th M · 32nd M35Time10:02:52hPace4.48Cat.M35
- 141Furukawa120th M · 33rd M35Time10:04:17hPace4.47Cat.M35
- 142Aniceski Bpm121st M · 10th M45Time10:05:33hPace4.46Cat.M45
- 143Bpm Aniceski122nd M · 23rd M40Time10:05:34hPace4.46Cat.M40
- 144123rd M · 34th M35Time10:07:14hPace4.45Cat.M35
- 145Domiciana Gomes22nd F · 1st W50Time10:07:37hPace4.44Cat.W50
- 146Domiciana Gomes124th M · 3rd M50Time10:07:38hPace4.44Cat.M50
- 147Os Cabras125th M · 53rd M23Time10:09:39hPace4.43Cat.M23
- 148Trb - Trail Runners Br...126th M · 54th M23Time10:11:10hPace4.42Cat.M23
- 149Ezk Team127th M · 35th M35Time10:17:00hPace4.38Cat.M35
- 150Atletis -Mb23rd F · 3rd W45Time10:20:53hPace4.35Cat.W45
Showing ranks 101–150 of 183